sensor_id;sensor_type;location;lat;lon;timestamp;pressure;altitude;pressure_sealevel;temperature;humidity
44044;BME280;29709;52.396;16.796;2023-07-24T00:01:34;100884.30;;;20.40;53.43
44044;BME280;29709;52.396;16.796;2023-07-24T00:04:47;100878.58;;;20.35;53.83
44044;BME280;29709;52.396;16.796;2023-07-24T00:08:00;100867.47;;;20.29;52.56
44044;BME280;29709;52.396;16.796;2023-07-24T00:11:13;100871.49;;;20.14;54.25
44044;BME280;29709;52.396;16.796;2023-07-24T00:14:26;100868.37;;;20.04;54.90
44044;BME280;29709;52.396;16.796;2023-07-24T00:17:39;100870.12;;;19.99;52.75
44044;BME280;29709;52.396;16.796;2023-07-24T00:20:53;100863.97;;;19.90;53.46
44044;BME280;29709;52.396;16.796;2023-07-24T00:24:06;100854.20;;;19.81;55.44
44044;BME280;29709;52.396;16.796;2023-07-24T00:27:19;100858.47;;;19.83;55.42
44044;BME280;29709;52.396;16.796;2023-07-24T00:30:32;100858.47;;;19.83;55.64
44044;BME280;29709;52.396;16.796;2023-07-24T00:33:45;100864.94;;;19.77;56.75
44044;BME280;29709;52.396;16.796;2023-07-24T00:36:58;100854.65;;;19.78;55.70
44044;BME280;29709;52.396;16.796;2023-07-24T00:40:12;100857.50;;;19.71;56.58
44044;BME280;29709;52.396;16.796;2023-07-24T00:43:25;100858.24;;;19.60;57.48
44044;BME280;29709;52.396;16.796;2023-07-24T00:46:38;100857.38;;;19.53;54.85
44044;BME280;29709;52.396;16.796;2023-07-24T00:49:51;100867.50;;;19.47;58.54
44044;BME280;29709;52.396;16.796;2023-07-24T00:53:04;100856.34;;;19.47;57.22
44044;BME280;29709;52.396;16.796;2023-07-24T00:56:18;100864.94;;;19.46;56.12
44044;BME280;29709;52.396;16.796;2023-07-24T00:59:32;100851.63;;;19.48;57.68
44044;BME280;29709;52.396;16.796;2023-07-24T01:02:45;100836.17;;;19.52;56.81
44044;BME280;29709;52.396;16.796;2023-07-24T01:06:01;100835.31;;;19.51;58.38
44044;BME280;29709;52.396;16.796;2023-07-24T01:09:14;100835.09;;;19.53;55.27
44044;BME280;29709;52.396;16.796;2023-07-24T01:12:53;100840.24;;;19.56;57.02
44044;BME280;29709;52.396;16.796;2023-07-24T01:16:03;100848.79;;;19.61;55.56
44044;BME280;29709;52.396;16.796;2023-07-24T01:22:57;100851.34;;;19.63;56.10
44044;BME280;29709;52.396;16.796;2023-07-24T01:26:09;100850.27;;;19.64;57.41
44044;BME280;29709;52.396;16.796;2023-07-24T01:29:22;100855.60;;;19.65;56.25
44044;BME280;29709;52.396;16.796;2023-07-24T01:32:36;100838.27;;;19.63;56.24
44044;BME280;29709;52.396;16.796;2023-07-24T01:35:54;100837.80;;;19.66;58.79
44044;BME280;29709;52.396;16.796;2023-07-24T01:39:08;100837.05;;;19.77;58.53
44044;BME280;29709;52.396;16.796;2023-07-24T01:42:23;100838.24;;;19.88;58.65
44044;BME280;29709;52.396;16.796;2023-07-24T01:45:37;100836.03;;;19.97;57.95
44044;BME280;29709;52.396;16.796;2023-07-24T01:48:50;100826.10;;;20.01;56.30
44044;BME280;29709;52.396;16.796;2023-07-24T01:52:05;100830.16;;;20.05;55.70
44044;BME280;29709;52.396;16.796;2023-07-24T01:55:18;100835.51;;;20.06;55.89
44044;BME280;29709;52.396;16.796;2023-07-24T01:58:31;100828.89;;;20.01;56.58
44044;BME280;29709;52.396;16.796;2023-07-24T02:01:44;100825.71;;;19.97;57.03
44044;BME280;29709;52.396;16.796;2023-07-24T02:04:58;100825.09;;;19.95;58.00
44044;BME280;29709;52.396;16.796;2023-07-24T02:08:11;100822.54;;;19.94;60.12
44044;BME280;29709;52.396;16.796;2023-07-24T02:11:24;100821.00;;;19.98;59.73
44044;BME280;29709;52.396;16.796;2023-07-24T02:14:37;100810.02;;;20.03;59.56
44044;BME280;29709;52.396;16.796;2023-07-24T02:17:50;100815.50;;;20.09;60.79
44044;BME280;29709;52.396;16.796;2023-07-24T02:21:03;100818.23;;;20.16;60.75
44044;BME280;29709;52.396;16.796;2023-07-24T02:24:16;100814.12;;;20.18;61.22
44044;BME280;29709;52.396;16.796;2023-07-24T02:27:31;100812.59;;;20.23;61.03
44044;BME280;29709;52.396;16.796;2023-07-24T02:30:47;100811.03;;;20.27;61.13
44044;BME280;29709;52.396;16.796;2023-07-24T02:34:00;100803.28;;;20.29;60.36
44044;BME280;29709;52.396;16.796;2023-07-24T02:37:13;100796.84;;;20.28;58.48
44044;BME280;29709;52.396;16.796;2023-07-24T02:40:26;100804.12;;;20.29;59.30
44044;BME280;29709;52.396;16.796;2023-07-24T02:43:39;100801.34;;;20.29;59.67
44044;BME280;29709;52.396;16.796;2023-07-24T02:46:53;100799.80;;;20.33;59.09
44044;BME280;29709;52.396;16.796;2023-07-24T02:50:06;100803.69;;;20.32;59.19
44044;BME280;29709;52.396;16.796;2023-07-24T02:53:20;100803.82;;;20.37;58.70
44044;BME280;29709;52.396;16.796;2023-07-24T02:56:33;100799.94;;;20.38;57.49
44044;BME280;29709;52.396;16.796;2023-07-24T02:59:46;100796.30;;;20.38;57.66
44044;BME280;29709;52.396;16.796;2023-07-24T03:02:59;100804.30;;;20.34;59.71
44044;BME280;29709;52.396;16.796;2023-07-24T03:06:12;100787.69;;;20.39;58.37
44044;BME280;29709;52.396;16.796;2023-07-24T03:09:25;100784.85;;;20.46;59.68
44044;BME280;29709;52.396;16.796;2023-07-24T03:12:39;100773.59;;;20.53;59.09
44044;BME280;29709;52.396;16.796;2023-07-24T03:15:55;100782.13;;;20.58;59.59
44044;BME280;29709;52.396;16.796;2023-07-24T03:19:09;100776.06;;;20.61;59.30
44044;BME280;29709;52.396;16.796;2023-07-24T03:22:22;100766.15;;;20.65;58.98
44044;BME280;29709;52.396;16.796;2023-07-24T03:25:35;100768.46;;;20.68;58.87
44044;BME280;29709;52.396;16.796;2023-07-24T03:28:48;100765.18;;;20.71;57.55
44044;BME280;29709;52.396;16.796;2023-07-24T03:32:01;100766.45;;;20.75;57.98
44044;BME280;29709;52.396;16.796;2023-07-24T03:35:14;100761.54;;;20.70;57.98
44044;BME280;29709;52.396;16.796;2023-07-24T03:38:27;100766.03;;;20.71;58.54
44044;BME280;29709;52.396;16.796;2023-07-24T03:41:42;100763.24;;;20.71;57.77
44044;BME280;29709;52.396;16.796;2023-07-24T03:44:58;100767.53;;;20.74;58.30
44044;BME280;29709;52.396;16.796;2023-07-24T03:48:11;100762.56;;;20.76;58.68
44044;BME280;29709;52.396;16.796;2023-07-24T03:51:24;100745.32;;;20.79;57.64
44044;BME280;29709;52.396;16.796;2023-07-24T03:54:38;100756.85;;;20.83;58.77
44044;BME280;29709;52.396;16.796;2023-07-24T03:57:51;100757.38;;;20.91;57.82
44044;BME280;29709;52.396;16.796;2023-07-24T04:01:04;100754.34;;;20.93;58.20
44044;BME280;29709;52.396;16.796;2023-07-24T04:04:17;100758.14;;;20.98;57.65
44044;BME280;29709;52.396;16.796;2023-07-24T04:07:30;100748.42;;;21.01;58.15
44044;BME280;29709;52.396;16.796;2023-07-24T04:10:43;100747.73;;;21.06;58.04
44044;BME280;29709;52.396;16.796;2023-07-24T04:13:56;100748.09;;;21.09;58.41
44044;BME280;29709;52.396;16.796;2023-07-24T04:17:10;100748.70;;;21.11;57.13
44044;BME280;29709;52.396;16.796;2023-07-24T04:20:23;100750.40;;;21.12;58.12
44044;BME280;29709;52.396;16.796;2023-07-24T04:23:36;100758.77;;;21.12;58.23
44044;BME280;29709;52.396;16.796;2023-07-24T04:26:49;100748.00;;;21.16;57.84
44044;BME280;29709;52.396;16.796;2023-07-24T04:30:02;100753.34;;;21.17;57.84
44044;BME280;29709;52.396;16.796;2023-07-24T04:33:15;100755.65;;;21.20;57.05
44044;BME280;29709;52.396;16.796;2023-07-24T04:36:28;100759.66;;;21.24;58.00
44044;BME280;29709;52.396;16.796;2023-07-24T04:39:42;100764.58;;;21.29;56.12
44044;BME280;29709;52.396;16.796;2023-07-24T04:42:55;100762.14;;;21.32;56.41
44044;BME280;29709;52.396;16.796;2023-07-24T04:46:08;100752.55;;;21.28;57.17
44044;BME280;29709;52.396;16.796;2023-07-24T04:49:21;100758.13;;;21.28;56.90
44044;BME280;29709;52.396;16.796;2023-07-24T04:52:34;100765.18;;;21.31;55.50
44044;BME280;29709;52.396;16.796;2023-07-24T04:55:48;100777.10;;;21.26;55.66
44044;BME280;29709;52.396;16.796;2023-07-24T04:59:01;100770.11;;;21.17;56.75
44044;BME280;29709;52.396;16.796;2023-07-24T05:02:17;100765.95;;;21.08;59.31
44044;BME280;29709;52.396;16.796;2023-07-24T05:05:30;100783.05;;;21.00;58.80
44044;BME280;29709;52.396;16.796;2023-07-24T05:08:44;100770.66;;;20.96;58.92
44044;BME280;29709;52.396;16.796;2023-07-24T05:11:57;100758.84;;;20.94;59.04
44044;BME280;29709;52.396;16.796;2023-07-24T05:15:10;100764.83;;;20.97;59.29
44044;BME280;29709;52.396;16.796;2023-07-24T05:18:24;100752.22;;;21.07;60.45
44044;BME280;29709;52.396;16.796;2023-07-24T05:21:37;100741.52;;;21.15;59.91
44044;BME280;29709;52.396;16.796;2023-07-24T05:24:50;100738.63;;;21.22;61.19
44044;BME280;29709;52.396;16.796;2023-07-24T05:28:03;100733.48;;;21.37;59.04
44044;BME280;29709;52.396;16.796;2023-07-24T05:31:16;100733.95;;;21.46;59.69
44044;BME280;29709;52.396;16.796;2023-07-24T05:34:29;100727.65;;;21.50;59.23
44044;BME280;29709;52.396;16.796;2023-07-24T05:37:42;100728.86;;;21.66;58.51
44044;BME280;29709;52.396;16.796;2023-07-24T05:41:00;100737.14;;;21.73;57.87
44044;BME280;29709;52.396;16.796;2023-07-24T05:44:13;100728.73;;;21.84;57.99
44044;BME280;29709;52.396;16.796;2023-07-24T05:47:26;100732.50;;;22.02;57.62
44044;BME280;29709;52.396;16.796;2023-07-24T05:50:40;100726.56;;;22.10;56.32
44044;BME280;29709;52.396;16.796;2023-07-24T05:53:54;100723.87;;;22.15;56.24
44044;BME280;29709;52.396;16.796;2023-07-24T05:57:07;100719.09;;;22.27;55.50
44044;BME280;29709;52.396;16.796;2023-07-24T06:00:26;100715.64;;;22.37;55.78
44044;BME280;29709;52.396;16.796;2023-07-24T06:03:39;100709.62;;;22.57;54.15
44044;BME280;29709;52.396;16.796;2023-07-24T06:06:53;100707.52;;;22.64;53.95
44044;BME280;29709;52.396;16.796;2023-07-24T06:10:07;100704.55;;;22.70;53.56
44044;BME280;29709;52.396;16.796;2023-07-24T06:13:20;100696.26;;;22.75;53.51
44044;BME280;29709;52.396;16.796;2023-07-24T06:16:33;100700.13;;;22.86;53.16
44044;BME280;29709;52.396;16.796;2023-07-24T06:19:46;100696.59;;;23.08;52.79
44044;BME280;29709;52.396;16.796;2023-07-24T06:22:59;100699.48;;;23.29;53.07
44044;BME280;29709;52.396;16.796;2023-07-24T06:26:13;100689.46;;;23.50;51.33
44044;BME280;29709;52.396;16.796;2023-07-24T06:29:26;100693.89;;;23.63;51.19
44044;BME280;29709;52.396;16.796;2023-07-24T06:32:40;100692.02;;;23.69;50.59
44044;BME280;29709;52.396;16.796;2023-07-24T06:35:53;100691.81;;;23.75;50.73
44044;BME280;29709;52.396;16.796;2023-07-24T06:39:06;100687.47;;;23.84;50.42
44044;BME280;29709;52.396;16.796;2023-07-24T06:42:19;100686.90;;;24.04;50.01
44044;BME280;29709;52.396;16.796;2023-07-24T06:45:32;100676.86;;;24.30;49.60
44044;BME280;29709;52.396;16.796;2023-07-24T06:48:45;100671.39;;;24.40;49.56
44044;BME280;29709;52.396;16.796;2023-07-24T06:51:58;100671.28;;;24.57;49.37
44044;BME280;29709;52.396;16.796;2023-07-24T06:55:11;100655.09;;;24.91;48.19
44044;BME280;29709;52.396;16.796;2023-07-24T06:58:24;100659.04;;;25.22;48.68
44044;BME280;29709;52.396;16.796;2023-07-24T07:01:37;100656.76;;;25.56;48.21
44044;BME280;29709;52.396;16.796;2023-07-24T07:04:51;100655.91;;;26.03;47.10
44044;BME280;29709;52.396;16.796;2023-07-24T07:08:04;100652.09;;;26.30;47.03
44044;BME280;29709;52.396;16.796;2023-07-24T07:11:17;100651.09;;;26.66;45.73
44044;BME280;29709;52.396;16.796;2023-07-24T07:14:30;100646.91;;;26.89;45.28
44044;BME280;29709;52.396;16.796;2023-07-24T07:17:43;100644.69;;;27.17;45.27
44044;BME280;29709;52.396;16.796;2023-07-24T07:20:56;100645.24;;;27.29;44.49
44044;BME280;29709;52.396;16.796;2023-07-24T07:24:09;100636.77;;;27.44;44.52
44044;BME280;29709;52.396;16.796;2023-07-24T07:27:23;100631.97;;;27.40;44.05
44044;BME280;29709;52.396;16.796;2023-07-24T07:30:36;100637.63;;;27.35;43.87
44044;BME280;29709;52.396;16.796;2023-07-24T07:33:49;100630.00;;;27.45;44.36
44044;BME280;29709;52.396;16.796;2023-07-24T07:37:02;100630.27;;;27.54;44.01
44044;BME280;29709;52.396;16.796;2023-07-24T07:40:15;100643.82;;;27.47;43.88
44044;BME280;29709;52.396;16.796;2023-07-24T07:43:28;100639.59;;;27.39;44.45
44044;BME280;29709;52.396;16.796;2023-07-24T07:46:42;100637.34;;;27.46;43.38
44044;BME280;29709;52.396;16.796;2023-07-24T07:49:55;100637.34;;;27.51;44.24
44044;BME280;29709;52.396;16.796;2023-07-24T07:53:08;100631.11;;;27.54;43.57
44044;BME280;29709;52.396;16.796;2023-07-24T07:56:21;100626.28;;;27.60;43.53
44044;BME280;29709;52.396;16.796;2023-07-24T07:59:34;100626.29;;;27.70;43.04
44044;BME280;29709;52.396;16.796;2023-07-24T08:02:48;100627.66;;;27.88;43.30
44044;BME280;29709;52.396;16.796;2023-07-24T08:06:01;100618.80;;;28.15;43.27
44044;BME280;29709;52.396;16.796;2023-07-24T08:09:14;100613.83;;;28.51;42.87
44044;BME280;29709;52.396;16.796;2023-07-24T08:12:28;100620.85;;;28.59;42.34
44044;BME280;29709;52.396;16.796;2023-07-24T08:15:41;100619.18;;;28.53;41.82
44044;BME280;29709;52.396;16.796;2023-07-24T08:18:54;100613.88;;;28.41;41.62
44044;BME280;29709;52.396;16.796;2023-07-24T08:22:08;100612.38;;;28.54;41.36
44044;BME280;29709;52.396;16.796;2023-07-24T08:25:21;100610.26;;;28.74;40.86
44044;BME280;29709;52.396;16.796;2023-07-24T08:28:34;100597.44;;;28.92;40.74
44044;BME280;29709;52.396;16.796;2023-07-24T08:34:38;100604.38;;;29.39;39.54
44044;BME280;29709;52.396;16.796;2023-07-24T08:37:51;100602.48;;;29.58;39.61
44044;BME280;29709;52.396;16.796;2023-07-24T08:41:06;100609.06;;;29.78;38.75
44044;BME280;29709;52.396;16.796;2023-07-24T08:44:20;100619.45;;;29.87;39.18
44044;BME280;29709;52.396;16.796;2023-07-24T08:47:34;100616.44;;;30.03;38.85
44044;BME280;29709;52.396;16.796;2023-07-24T08:50:50;100617.02;;;30.00;38.56
44044;BME280;29709;52.396;16.796;2023-07-24T08:54:04;100614.35;;;30.13;37.79
44044;BME280;29709;52.396;16.796;2023-07-24T08:57:18;100613.12;;;29.96;37.68
44044;BME280;29709;52.396;16.796;2023-07-24T09:00:32;100607.80;;;29.65;38.10
44044;BME280;29709;52.396;16.796;2023-07-24T09:03:45;100598.89;;;29.77;38.24
44044;BME280;29709;52.396;16.796;2023-07-24T09:06:59;100596.24;;;29.85;37.61
44044;BME280;29709;52.396;16.796;2023-07-24T09:10:13;100594.91;;;30.02;38.02
44044;BME280;29709;52.396;16.796;2023-07-24T09:13:27;100591.59;;;30.18;37.43
44044;BME280;29709;52.396;16.796;2023-07-24T09:16:40;100586.23;;;30.17;37.60
44044;BME280;29709;52.396;16.796;2023-07-24T09:19:57;100587.02;;;30.23;37.47
44044;BME280;29709;52.396;16.796;2023-07-24T09:23:14;100568.02;;;30.23;37.40
44044;BME280;29709;52.396;16.796;2023-07-24T09:26:29;100584.42;;;30.45;36.93
44044;BME280;29709;52.396;16.796;2023-07-24T09:29:42;100565.84;;;30.53;36.23
44044;BME280;29709;52.396;16.796;2023-07-24T09:32:55;100574.14;;;30.49;36.29
44044;BME280;29709;52.396;16.796;2023-07-24T09:36:09;100557.97;;;30.50;37.08
44044;BME280;29709;52.396;16.796;2023-07-24T09:39:27;100555.05;;;30.73;36.64
44044;BME280;29709;52.396;16.796;2023-07-24T09:42:40;100542.45;;;30.98;36.26
44044;BME280;29709;52.396;16.796;2023-07-24T09:45:54;100543.94;;;31.10;35.56
44044;BME280;29709;52.396;16.796;2023-07-24T09:49:07;100542.47;;;31.12;35.86
44044;BME280;29709;52.396;16.796;2023-07-24T09:52:27;100538.55;;;31.27;35.63
44044;BME280;29709;52.396;16.796;2023-07-24T09:55:52;100537.16;;;31.24;35.22
44044;BME280;29709;52.396;16.796;2023-07-24T09:59:09;100530.88;;;31.41;34.95
44044;BME280;29709;52.396;16.796;2023-07-24T10:02:23;100527.64;;;31.48;33.77
44044;BME280;29709;52.396;16.796;2023-07-24T10:05:37;100531.29;;;31.35;33.99
44044;BME280;29709;52.396;16.796;2023-07-24T10:08:51;100538.10;;;31.20;34.85
44044;BME280;29709;52.396;16.796;2023-07-24T10:12:06;100535.73;;;31.41;34.26
44044;BME280;29709;52.396;16.796;2023-07-24T10:15:20;100528.36;;;31.40;34.32
44044;BME280;29709;52.396;16.796;2023-07-24T10:18:35;100529.00;;;31.50;34.60
44044;BME280;29709;52.396;16.796;2023-07-24T10:21:49;100534.27;;;31.71;33.75
44044;BME280;29709;52.396;16.796;2023-07-24T10:25:04;100540.77;;;31.57;34.27
44044;BME280;29709;52.396;16.796;2023-07-24T10:28:18;100529.72;;;31.56;34.63
44044;BME280;29709;52.396;16.796;2023-07-24T10:31:32;100535.09;;;31.44;34.42
44044;BME280;29709;52.396;16.796;2023-07-24T10:38:12;100530.32;;;31.25;34.46
44044;BME280;29709;52.396;16.796;2023-07-24T10:44:49;100522.88;;;31.43;34.26
44044;BME280;29709;52.396;16.796;2023-07-24T10:48:03;100531.41;;;31.43;34.06
44044;BME280;29709;52.396;16.796;2023-07-24T10:51:17;100524.05;;;31.42;34.01
44044;BME280;29709;52.396;16.796;2023-07-24T10:54:31;100513.41;;;31.34;34.24
44044;BME280;29709;52.396;16.796;2023-07-24T10:57:45;100515.33;;;31.39;34.11
44044;BME280;29709;52.396;16.796;2023-07-24T11:00:59;100510.80;;;31.38;34.26
44044;BME280;29709;52.396;16.796;2023-07-24T11:04:12;100511.01;;;31.41;34.08
44044;BME280;29709;52.396;16.796;2023-07-24T11:07:25;100510.77;;;31.24;34.03
44044;BME280;29709;52.396;16.796;2023-07-24T11:10:44;100498.84;;;31.08;34.25
44044;BME280;29709;52.396;16.796;2023-07-24T11:13:57;100509.88;;;31.10;34.56
44044;BME280;29709;52.396;16.796;2023-07-24T11:17:10;100506.84;;;31.06;34.12
44044;BME280;29709;52.396;16.796;2023-07-24T11:20:23;100499.62;;;30.95;34.22
44044;BME280;29709;52.396;16.796;2023-07-24T11:23:37;100496.79;;;30.95;34.56
44044;BME280;29709;52.396;16.796;2023-07-24T11:26:52;100488.20;;;31.00;34.04
44044;BME280;29709;52.396;16.796;2023-07-24T11:30:06;100477.58;;;31.06;34.45
44044;BME280;29709;52.396;16.796;2023-07-24T11:33:19;100478.98;;;31.08;34.52
44044;BME280;29709;52.396;16.796;2023-07-24T11:36:32;100474.01;;;31.00;34.56
44044;BME280;29709;52.396;16.796;2023-07-24T11:39:58;100466.23;;;31.06;34.91
44044;BME280;29709;52.396;16.796;2023-07-24T11:43:16;100471.50;;;31.12;34.45
44044;BME280;29709;52.396;16.796;2023-07-24T11:46:30;100464.02;;;31.02;34.35
44044;BME280;29709;52.396;16.796;2023-07-24T11:56:34;100445.38;;;31.29;33.82
44044;BME280;29709;52.396;16.796;2023-07-24T11:59:48;100438.84;;;31.42;34.07
44044;BME280;29709;52.396;16.796;2023-07-24T12:03:01;100428.42;;;31.51;33.42
44044;BME280;29709;52.396;16.796;2023-07-24T12:06:17;100419.90;;;31.51;32.83
44044;BME280;29709;52.396;16.796;2023-07-24T12:09:31;100420.41;;;31.53;32.82
44044;BME280;29709;52.396;16.796;2023-07-24T12:12:46;100419.38;;;31.49;32.58
44044;BME280;29709;52.396;16.796;2023-07-24T12:15:59;100420.23;;;31.50;32.52
44044;BME280;29709;52.396;16.796;2023-07-24T12:19:12;100412.64;;;31.59;32.56
44044;BME280;29709;52.396;16.796;2023-07-24T12:22:25;100397.37;;;31.69;32.58
44044;BME280;29709;52.396;16.796;2023-07-24T12:25:38;100388.41;;;31.75;32.08
44044;BME280;29709;52.396;16.796;2023-07-24T12:28:52;100368.54;;;31.62;32.10
44044;BME280;29709;52.396;16.796;2023-07-24T12:32:05;100370.82;;;31.73;32.00
44044;BME280;29709;52.396;16.796;2023-07-24T12:35:19;100362.74;;;31.80;31.70
44044;BME280;29709;52.396;16.796;2023-07-24T12:38:32;100360.84;;;31.76;31.17
44044;BME280;29709;52.396;16.796;2023-07-24T12:41:45;100342.41;;;31.73;31.52
44044;BME280;29709;52.396;16.796;2023-07-24T12:44:58;100340.38;;;31.87;32.03
44044;BME280;29709;52.396;16.796;2023-07-24T12:48:11;100355.51;;;31.97;31.59
44044;BME280;29709;52.396;16.796;2023-07-24T12:51:24;100352.08;;;32.08;31.54
44044;BME280;29709;52.396;16.796;2023-07-24T12:54:38;100355.27;;;32.29;30.99
44044;BME280;29709;52.396;16.796;2023-07-24T12:57:51;100347.23;;;32.54;31.01
44044;BME280;29709;52.396;16.796;2023-07-24T13:01:04;100341.91;;;32.61;30.74
44044;BME280;29709;52.396;16.796;2023-07-24T13:04:19;100336.71;;;32.85;30.84
44044;BME280;29709;52.396;16.796;2023-07-24T13:07:33;100329.59;;;33.05;29.57
44044;BME280;29709;52.396;16.796;2023-07-24T13:10:46;100332.69;;;32.86;29.46
44044;BME280;29709;52.396;16.796;2023-07-24T13:13:59;100326.10;;;32.77;29.96
44044;BME280;29709;52.396;16.796;2023-07-24T13:17:12;100325.87;;;32.96;29.77
44044;BME280;29709;52.396;16.796;2023-07-24T13:20:25;100309.32;;;33.07;29.22
44044;BME280;29709;52.396;16.796;2023-07-24T13:23:38;100314.85;;;33.12;28.14
44044;BME280;29709;52.396;16.796;2023-07-24T13:26:52;100315.34;;;33.14;29.10
44044;BME280;29709;52.396;16.796;2023-07-24T13:30:05;100322.73;;;33.06;28.87
44044;BME280;29709;52.396;16.796;2023-07-24T13:33:19;100310.46;;;32.97;28.87
44044;BME280;29709;52.396;16.796;2023-07-24T13:36:34;100296.05;;;32.93;29.29
44044;BME280;29709;52.396;16.796;2023-07-24T13:39:48;100292.18;;;32.89;28.42
44044;BME280;29709;52.396;16.796;2023-07-24T13:43:01;100281.63;;;32.90;29.24
44044;BME280;29709;52.396;16.796;2023-07-24T13:46:16;100279.81;;;33.02;28.79
44044;BME280;29709;52.396;16.796;2023-07-24T13:49:29;100275.68;;;33.17;28.17
44044;BME280;29709;52.396;16.796;2023-07-24T13:52:42;100281.69;;;33.07;28.10
44044;BME280;29709;52.396;16.796;2023-07-24T13:55:58;100272.59;;;32.88;27.98
44044;BME280;29709;52.396;16.796;2023-07-24T13:59:11;100261.94;;;32.71;27.45
44044;BME280;29709;52.396;16.796;2023-07-24T14:02:24;100257.91;;;32.63;27.62
44044;BME280;29709;52.396;16.796;2023-07-24T14:05:38;100235.12;;;32.55;27.81
44044;BME280;29709;52.396;16.796;2023-07-24T14:08:51;100240.30;;;32.61;27.99
44044;BME280;29709;52.396;16.796;2023-07-24T14:12:05;100259.92;;;32.63;28.28
44044;BME280;29709;52.396;16.796;2023-07-24T14:15:18;100246.84;;;32.62;28.35
44044;BME280;29709;52.396;16.796;2023-07-24T14:18:32;100235.45;;;32.53;28.32
44044;BME280;29709;52.396;16.796;2023-07-24T14:21:49;100231.23;;;32.51;27.92
44044;BME280;29709;52.396;16.796;2023-07-24T14:25:03;100231.77;;;32.53;28.55
44044;BME280;29709;52.396;16.796;2023-07-24T14:28:18;100216.72;;;32.61;28.86
44044;BME280;29709;52.396;16.796;2023-07-24T14:31:31;100216.41;;;32.62;28.60
44044;BME280;29709;52.396;16.796;2023-07-24T14:34:50;100206.68;;;32.55;29.25
44044;BME280;29709;52.396;16.796;2023-07-24T14:38:04;100196.10;;;32.47;28.73
44044;BME280;29709;52.396;16.796;2023-07-24T14:41:17;100194.76;;;32.44;29.53
44044;BME280;29709;52.396;16.796;2023-07-24T14:44:30;100191.91;;;32.44;28.76
44044;BME280;29709;52.396;16.796;2023-07-24T14:47:43;100188.77;;;32.54;28.85
44044;BME280;29709;52.396;16.796;2023-07-24T14:50:56;100194.27;;;32.42;28.95
44044;BME280;29709;52.396;16.796;2023-07-24T14:54:09;100168.29;;;32.35;29.15
44044;BME280;29709;52.396;16.796;2023-07-24T14:57:24;100178.75;;;32.26;29.22
44044;BME280;29709;52.396;16.796;2023-07-24T15:00:37;100167.45;;;32.34;30.12
44044;BME280;29709;52.396;16.796;2023-07-24T15:03:51;100166.27;;;32.35;29.71
44044;BME280;29709;52.396;16.796;2023-07-24T15:07:04;100158.75;;;32.31;29.50
44044;BME280;29709;52.396;16.796;2023-07-24T15:10:17;100150.66;;;32.24;29.87
44044;BME280;29709;52.396;16.796;2023-07-24T15:13:30;100140.25;;;32.11;29.70
44044;BME280;29709;52.396;16.796;2023-07-24T15:16:45;100128.03;;;32.10;30.01
44044;BME280;29709;52.396;16.796;2023-07-24T15:19:58;100125.49;;;32.09;29.67
44044;BME280;29709;52.396;16.796;2023-07-24T15:23:12;100119.80;;;32.09;30.12
44044;BME280;29709;52.396;16.796;2023-07-24T15:26:26;100103.28;;;32.11;30.39
44044;BME280;29709;52.396;16.796;2023-07-24T15:29:39;100099.77;;;32.14;30.27
44044;BME280;29709;52.396;16.796;2023-07-24T15:32:52;100114.78;;;32.06;30.14
44044;BME280;29709;52.396;16.796;2023-07-24T15:36:05;100095.02;;;31.92;29.98
44044;BME280;29709;52.396;16.796;2023-07-24T15:39:19;100109.52;;;31.82;30.48
44044;BME280;29709;52.396;16.796;2023-07-24T15:42:32;100098.59;;;31.75;30.29
44044;BME280;29709;52.396;16.796;2023-07-24T15:45:45;100090.20;;;31.70;31.23
44044;BME280;29709;52.396;16.796;2023-07-24T15:48:58;100078.17;;;31.73;31.18
44044;BME280;29709;52.396;16.796;2023-07-24T15:52:12;100086.40;;;31.75;31.92
44044;BME280;29709;52.396;16.796;2023-07-24T15:55:25;100079.67;;;31.71;31.71
44044;BME280;29709;52.396;16.796;2023-07-24T15:58:38;100071.45;;;31.60;32.07
44044;BME280;29709;52.396;16.796;2023-07-24T16:01:55;100068.04;;;31.50;32.37
44044;BME280;29709;52.396;16.796;2023-07-24T16:05:16;100070.88;;;31.50;32.67
44044;BME280;29709;52.396;16.796;2023-07-24T16:08:30;100055.45;;;31.42;32.80
44044;BME280;29709;52.396;16.796;2023-07-24T16:11:43;100049.39;;;31.35;33.27
44044;BME280;29709;52.396;16.796;2023-07-24T16:14:56;100042.20;;;31.29;33.41
44044;BME280;29709;52.396;16.796;2023-07-24T16:18:09;100050.38;;;31.30;33.73
44044;BME280;29709;52.396;16.796;2023-07-24T16:21:22;100040.20;;;31.29;33.80
44044;BME280;29709;52.396;16.796;2023-07-24T16:24:39;100054.63;;;31.19;33.39
44044;BME280;29709;52.396;16.796;2023-07-24T16:27:52;100037.13;;;31.03;33.65
44044;BME280;29709;52.396;16.796;2023-07-24T16:31:05;100032.05;;;30.92;33.46
44044;BME280;29709;52.396;16.796;2023-07-24T16:34:18;100028.45;;;30.78;33.80
44044;BME280;29709;52.396;16.796;2023-07-24T16:37:32;100040.37;;;30.66;33.45
44044;BME280;29709;52.396;16.796;2023-07-24T16:40:45;100038.26;;;30.58;33.04
44044;BME280;29709;52.396;16.796;2023-07-24T16:43:58;100049.19;;;30.51;33.57
44044;BME280;29709;52.396;16.796;2023-07-24T16:47:11;100038.18;;;30.49;33.95
44044;BME280;29709;52.396;16.796;2023-07-24T16:50:25;100034.82;;;30.47;33.98
44044;BME280;29709;52.396;16.796;2023-07-24T16:53:38;100038.60;;;30.42;33.55
44044;BME280;29709;52.396;16.796;2023-07-24T16:56:51;100033.90;;;30.38;33.90
44044;BME280;29709;52.396;16.796;2023-07-24T17:00:05;100034.22;;;30.36;33.98